Time;durP1;ratioP1;P1;durP2;ratioP2;P2;SDS_P1;SDS_P2;PMS_P1;PMS_P2;Temp;Humidity;BMP_temperature;BMP_pressure;BME280_temperature;BME280_humidity;BME280_pressure;Samples;Min_cycle;Max_cycle;Signal;HPM_P1;HPM_P2
2021/10/03 00:00:46;;;;;;;6.75;5.38;;;15.50;99.90;;;;;;5032787;28;20464;-73
2021/10/03 00:03:17;;;;;;;6.57;4.53;;;15.50;99.90;;;;;;5031999;28;21004;-73
2021/10/03 00:05:44;;;;;;;7.00;5.05;;;15.50;99.90;;;;;;5049623;28;20647;-73
2021/10/03 00:08:10;;;;;;;6.03;4.30;;;15.50;99.90;;;;;;5032838;28;20048;-72
2021/10/03 00:10:36;;;;;;;8.32;5.03;;;15.60;99.90;;;;;;5046480;28;20052;-73
2021/10/03 00:13:05;;;;;;;5.55;4.00;;;15.60;99.90;;;;;;5049227;28;20056;-73
2021/10/03 00:15:32;;;;;;;6.72;3.88;;;15.70;99.90;;;;;;5032793;28;20048;-72
2021/10/03 00:17:58;;;;;;;5.43;3.90;;;15.70;99.90;;;;;;5045770;28;20067;-72
2021/10/03 00:20:25;;;;;;;6.43;3.10;;;15.80;99.90;;;;;;5032196;28;20044;-72
2021/10/03 00:22:51;;;;;;;5.05;3.20;;;15.80;99.90;;;;;;5031947;28;20487;-73
2021/10/03 00:25:17;;;;;;;5.88;2.80;;;15.90;99.90;;;;;;5068250;28;20181;-74
2021/10/03 00:27:45;;;;;;;5.05;3.22;;;15.90;99.90;;;;;;5067879;28;20115;-74
2021/10/03 00:30:15;;;;;;;4.25;2.83;;;15.90;99.90;;;;;;5049403;28;20116;-72
2021/10/03 00:32:42;;;;;;;4.30;2.70;;;15.90;99.90;;;;;;5049558;28;20525;-72
2021/10/03 00:35:08;;;;;;;5.97;2.65;;;16.00;99.90;;;;;;5049739;28;20501;-72
2021/10/03 00:37:37;;;;;;;3.65;2.53;;;16.00;99.90;;;;;;5033116;28;20048;-71
2021/10/03 00:40:03;;;;;;;3.92;1.90;;;16.00;99.90;;;;;;5031751;28;20040;-70
2021/10/03 00:42:29;;;;;;;3.17;2.05;;;16.00;99.90;;;;;;5048529;28;20056;-72
2021/10/03 00:44:55;;;;;;;3.60;2.00;;;16.10;99.90;;;;;;5031861;28;20044;-73
2021/10/03 00:47:21;;;;;;;3.15;1.90;;;16.10;99.90;;;;;;5025741;28;20099;-72
2021/10/03 00:49:46;;;;;;;3.63;1.90;;;16.10;99.90;;;;;;5044066;28;20055;-71
2021/10/03 00:52:12;;;;;;;4.07;1.90;;;16.20;99.90;;;;;;5027466;28;20040;-72
2021/10/03 00:54:39;;;;;;;3.78;1.65;;;16.20;99.90;;;;;;5046924;28;20040;-72
2021/10/03 00:57:05;;;;;;;2.35;1.77;;;16.20;99.90;;;;;;5046913;28;20525;-72
2021/10/03 00:59:32;;;;;;;2.20;1.60;;;16.20;99.90;;;;;;5047684;28;20048;-75
2021/10/03 01:01:59;;;;;;;3.40;2.08;;;16.30;99.90;;;;;;5029532;28;20138;-74
2021/10/03 01:04:24;;;;;;;3.15;1.88;;;16.30;99.90;;;;;;5047545;28;20114;-73
2021/10/03 01:06:51;;;;;;;2.92;1.75;;;16.30;99.90;;;;;;5047690;28;20131;-71
2021/10/03 01:09:19;;;;;;;3.28;1.77;;;16.30;99.90;;;;;;5047417;28;20249;-72
2021/10/03 01:11:45;;;;;;;4.93;2.05;;;16.40;99.90;;;;;;5047076;28;20045;-73
2021/10/03 01:14:11;;;;;;;3.83;1.80;;;16.40;99.90;;;;;;5046839;28;20043;-72
2021/10/03 01:16:38;;;;;;;2.30;2.00;;;16.40;99.90;;;;;;5046329;28;20655;-73
2021/10/03 01:19:04;;;;;;;3.33;1.98;;;16.40;99.90;;;;;;5029886;28;20535;-72
2021/10/03 01:21:30;;;;;;;3.42;2.00;;;16.30;99.90;;;;;;5064513;28;20045;-71
2021/10/03 01:23:57;;;;;;;3.55;2.05;;;16.30;99.90;;;;;;5047128;28;20037;-72
2021/10/03 01:26:24;;;;;;;3.33;1.98;;;16.30;99.90;;;;;;5044105;28;20042;-71
2021/10/03 01:28:53;;;;;;;4.05;1.90;;;16.30;99.90;;;;;;5030386;28;20538;-72
2021/10/03 01:31:21;;;;;;;2.72;1.98;;;16.30;99.90;;;;;;5028958;28;20037;-70
2021/10/03 01:33:47;;;;;;;2.60;1.92;;;16.30;99.90;;;;;;5050356;28;20075;-72
2021/10/03 01:36:13;;;;;;;5.55;2.60;;;16.30;99.90;;;;;;5050648;28;20037;-71
2021/10/03 01:38:39;;;;;;;5.10;2.30;;;16.30;99.90;;;;;;5049968;28;20052;-72
2021/10/03 01:41:05;;;;;;;4.43;2.08;;;16.20;99.90;;;;;;5049042;28;20071;-71
2021/10/03 01:43:32;;;;;;;3.97;2.08;;;16.20;99.90;;;;;;5051730;28;20119;-72
2021/10/03 01:46:04;;;;;;;3.72;2.00;;;16.20;99.90;;;;;;5033643;28;20057;-71
2021/10/03 01:48:30;;;;;;;4.35;2.20;;;16.20;99.90;;;;;;5051681;28;20094;-75
2021/10/03 01:50:59;;;;;;;4.97;2.20;;;16.20;99.90;;;;;;5035408;28;20040;-75
2021/10/03 01:53:47;;;;;;;2.42;1.83;;;16.20;99.90;;;;;;5051428;28;20048;-71
2021/10/03 01:56:13;;;;;;;2.65;2.00;;;16.20;99.90;;;;;;5034762;28;20041;-71
2021/10/03 01:58:43;;;;;;;4.10;2.20;;;16.20;99.90;;;;;;5060673;28;20105;-71
2021/10/03 02:01:13;;;;;;;4.53;2.10;;;16.30;99.90;;;;;;5030769;28;20047;-70
2021/10/03 02:03:39;;;;;;;3.20;1.92;;;16.20;99.90;;;;;;5070424;28;20044;-71
2021/10/03 02:06:05;;;;;;;3.00;2.17;;;16.30;99.90;;;;;;5052352;28;20036;-71
2021/10/03 02:08:33;;;;;;;3.80;2.20;;;16.30;99.90;;;;;;5037306;28;20052;-73
2021/10/03 02:11:01;;;;;;;2.88;1.75;;;16.30;99.90;;;;;;5070936;28;20052;-72
2021/10/03 02:13:30;;;;;;;2.30;1.67;;;16.30;99.90;;;;;;5070361;28;20127;-70
2021/10/03 02:15:56;;;;;;;2.45;1.90;;;16.20;99.90;;;;;;5035649;28;20052;-71
2021/10/03 02:18:31;;;;;;;4.00;2.35;;;16.20;99.90;;;;;;5052931;28;20044;-71
2021/10/03 02:20:57;;;;;;;5.63;2.92;;;16.20;99.90;;;;;;5029075;28;20057;-71
2021/10/03 02:23:23;;;;;;;5.60;3.78;;;16.20;99.90;;;;;;5032156;28;20160;-73
2021/10/03 02:25:49;;;;;;;3.78;3.00;;;16.20;99.90;;;;;;5030735;28;20072;-71
2021/10/03 02:28:18;;;;;;;3.67;3.03;;;16.20;99.90;;;;;;5013290;28;20037;-71
2021/10/03 02:30:49;;;;;;;2.78;2.22;;;16.20;99.90;;;;;;5025743;28;20052;-72
2021/10/03 02:33:15;;;;;;;2.95;2.15;;;16.20;99.90;;;;;;5029983;28;20041;-73
2021/10/03 02:35:42;;;;;;;4.72;2.08;;;16.20;99.90;;;;;;5013390;28;20562;-73
2021/10/03 02:38:14;;;;;;;2.90;2.00;;;16.20;99.90;;;;;;5014233;28;20044;-73
2021/10/03 02:40:43;;;;;;;3.33;1.80;;;16.30;99.90;;;;;;5031195;28;20087;-73
2021/10/03 02:43:09;;;;;;;4.57;2.05;;;16.30;99.90;;;;;;5029885;28;20094;-72
2021/10/03 02:45:38;;;;;;;4.00;2.05;;;16.30;99.90;;;;;;5018451;28;20153;-73
2021/10/03 02:48:04;;;;;;;3.67;1.70;;;16.30;99.90;;;;;;5014198;28;20041;-75
2021/10/03 02:50:30;;;;;;;3.63;1.63;;;16.30;99.90;;;;;;5014854;28;20161;-72
2021/10/03 02:52:56;;;;;;;3.70;1.70;;;16.30;99.90;;;;;;5026095;28;20057;-71
2021/10/03 02:55:22;;;;;;;4.10;1.60;;;16.30;99.90;;;;;;5008130;28;20049;-72
2021/10/03 02:57:48;;;;;;;2.30;1.63;;;16.30;99.90;;;;;;5061318;28;20133;-72
2021/10/03 03:00:14;;;;;;;2.42;1.42;;;16.30;99.90;;;;;;5032322;28;20563;-74
2021/10/03 03:02:40;;;;;;;2.70;1.70;;;16.30;99.90;;;;;;5045711;28;20093;-74
2021/10/03 03:05:08;;;;;;;2.00;1.40;;;16.30;99.90;;;;;;5051754;28;20127;-74
2021/10/03 03:07:35;;;;;;;3.45;1.40;;;16.30;99.90;;;;;;5068978;28;20101;-74
2021/10/03 03:10:05;;;;;;;2.50;1.48;;;16.30;99.90;;;;;;5036084;28;20064;-72
2021/10/03 03:12:35;;;;;;;2.67;1.55;;;16.30;99.90;;;;;;5052431;28;20056;-73
2021/10/03 03:15:05;;;;;;;1.08;0.95;;;16.30;99.90;;;;;;5035635;28;20538;-73
2021/10/03 03:17:31;;;;;;;3.08;1.38;;;16.40;99.90;;;;;;5051241;28;20516;-73
2021/10/03 03:20:00;;;;;;;2.13;1.40;;;16.30;99.90;;;;;;5052305;28;20044;-71
2021/10/03 03:22:26;;;;;;;3.90;1.40;;;16.40;99.90;;;;;;5042913;28;20117;-72
2021/10/03 03:24:52;;;;;;;3.15;1.33;;;16.40;99.90;;;;;;5036875;28;20047;-73
2021/10/03 03:27:18;;;;;;;1.92;1.15;;;16.40;99.90;;;;;;5051624;28;20513;-72
2021/10/03 03:29:44;;;;;;;2.13;1.38;;;16.40;99.90;;;;;;5051626;28;20124;-72
2021/10/03 03:32:10;;;;;;;1.95;1.35;;;16.40;99.90;;;;;;5035165;28;20431;-74
2021/10/03 03:34:35;;;;;;;2.70;1.23;;;16.40;99.90;;;;;;5051200;28;20071;-73
2021/10/03 03:37:04;;;;;;;1.95;1.15;;;16.40;99.90;;;;;;5051620;28;20048;-72
2021/10/03 03:39:30;;;;;;;2.53;1.40;;;16.40;99.90;;;;;;5052141;28;20487;-73
2021/10/03 03:41:56;;;;;;;2.80;1.20;;;16.30;99.90;;;;;;5051065;28;20055;-73
2021/10/03 03:44:22;;;;;;;1.55;0.90;;;16.20;99.90;;;;;;5034833;28;20083;-72
2021/10/03 03:46:48;;;;;;;3.75;0.82;;;16.10;99.90;;;;;;5033778;28;20141;-72
2021/10/03 03:49:14;;;;;;;2.08;1.00;;;16.00;99.90;;;;;;5033888;28;20506;-73
2021/10/03 03:51:40;;;;;;;1.77;1.10;;;15.90;99.90;;;;;;5031751;28;20589;-73
2021/10/03 03:54:05;;;;;;;2.95;0.90;;;15.80;99.90;;;;;;5031491;28;20087;-72
2021/10/03 03:56:37;;;;;;;2.10;0.95;;;15.80;99.90;;;;;;5031485;28;20071;-72
2021/10/03 03:59:03;;;;;;;1.60;0.90;;;15.70;99.90;;;;;;5030300;28;20045;-72
2021/10/03 04:01:29;;;;;;;1.92;1.08;;;15.60;99.90;;;;;;5041305;28;20102;-72
2021/10/03 04:03:55;;;;;;;2.45;1.17;;;15.60;99.90;;;;;;5068150;28;20040;-72
2021/10/03 04:06:21;;;;;;;3.63;1.10;;;15.50;99.90;;;;;;5052047;28;20040;-72
2021/10/03 04:08:47;;;;;;;3.65;1.05;;;15.50;99.90;;;;;;5068446;28;20084;-72
2021/10/03 04:11:13;;;;;;;2.60;1.00;;;15.40;99.90;;;;;;5051232;28;20498;-72
2021/10/03 04:13:40;;;;;;;3.95;1.30;;;15.40;99.90;;;;;;5051788;28;20052;-73
2021/10/03 04:16:06;;;;;;;2.50;0.93;;;15.40;99.90;;;;;;5068191;28;20072;-73
2021/10/03 04:18:35;;;;;;;2.50;1.50;;;15.40;99.90;;;;;;5047204;28;20144;-73
2021/10/03 04:21:00;;;;;;;2.85;1.30;;;15.30;99.90;;;;;;5048360;28;20467;-73
2021/10/03 04:23:26;;;;;;;2.83;1.25;;;15.30;99.90;;;;;;5047766;28;20051;-73
2021/10/03 04:25:55;;;;;;;3.15;1.25;;;15.20;99.90;;;;;;5044887;28;20375;-72
2021/10/03 04:28:24;;;;;;;3.95;1.20;;;15.10;99.90;;;;;;5051286;28;20503;-74
2021/10/03 04:30:50;;;;;;;2.25;1.00;;;15.10;99.90;;;;;;5034888;28;20059;-73
2021/10/03 04:33:16;;;;;;;1.95;0.98;;;15.00;99.90;;;;;;5050291;28;20051;-73
2021/10/03 04:35:42;;;;;;;5.13;1.48;;;15.00;99.90;;;;;;5031326;28;20044;-73
2021/10/03 04:38:07;;;;;;;4.93;1.17;;;14.90;99.90;;;;;;5014496;28;20080;-73
2021/10/03 04:40:33;;;;;;;2.30;0.90;;;14.80;99.90;;;;;;5031223;28;20518;-72
2021/10/03 04:42:59;;;;;;;2.25;0.88;;;14.70;99.90;;;;;;5010765;28;20061;-73
2021/10/03 04:45:25;;;;;;;3.78;1.20;;;14.70;99.90;;;;;;5009891;28;20049;-73
2021/10/03 04:47:50;;;;;;;3.67;1.02;;;14.60;99.90;;;;;;5029969;28;20439;-72
2021/10/03 04:50:16;;;;;;;3.90;1.40;;;14.60;99.90;;;;;;5030722;28;20041;-72
2021/10/03 04:52:45;;;;;;;2.70;1.30;;;14.60;99.90;;;;;;5018913;28;20073;-72
2021/10/03 04:55:12;;;;;;;3.00;1.08;;;14.50;99.90;;;;;;5027350;28;20054;-72
2021/10/03 04:57:39;;;;;;;2.60;1.30;;;14.50;99.90;;;;;;5033891;28;20052;-72
2021/10/03 05:00:09;;;;;;;2.55;1.05;;;14.50;99.90;;;;;;5029830;28;20048;-73
2021/10/03 05:02:35;;;;;;;2.53;1.08;;;14.50;99.90;;;;;;5044251;28;20076;-73
2021/10/03 05:05:00;;;;;;;2.92;1.50;;;14.50;99.90;;;;;;5010684;28;20048;-73
2021/10/03 05:07:26;;;;;;;4.00;1.00;;;14.50;99.90;;;;;;5030249;28;20128;-72
2021/10/03 05:09:52;;;;;;;2.90;1.02;;;14.50;99.90;;;;;;5014727;28;20053;-73
2021/10/03 05:12:18;;;;;;;3.75;1.38;;;14.40;99.90;;;;;;5030901;28;20049;-73
2021/10/03 05:14:44;;;;;;;4.68;1.48;;;14.40;99.90;;;;;;5014744;28;20530;-73
2021/10/03 05:17:10;;;;;;;4.45;1.50;;;14.40;99.90;;;;;;5013872;28;20531;-73
2021/10/03 05:19:35;;;;;;;2.97;1.30;;;14.40;99.90;;;;;;5015094;28;20045;-73
2021/10/03 05:22:04;;;;;;;4.22;1.60;;;14.40;99.90;;;;;;5014944;28;20046;-73
2021/10/03 05:24:32;;;;;;;3.58;1.50;;;14.40;99.90;;;;;;5049124;28;20053;-73
2021/10/03 05:26:58;;;;;;;3.05;1.58;;;14.40;99.90;;;;;;5051574;28;20072;-73
2021/10/03 05:29:24;;;;;;;2.42;1.50;;;14.40;99.90;;;;;;5050813;28;20052;-73
2021/10/03 05:31:50;;;;;;;5.82;1.85;;;14.30;99.90;;;;;;5051043;28;20057;-73
2021/10/03 05:34:15;;;;;;;3.45;1.60;;;14.30;99.90;;;;;;5050301;28;20047;-73
2021/10/03 05:36:41;;;;;;;4.55;1.80;;;14.30;99.90;;;;;;5033272;28;20048;-73
2021/10/03 05:39:07;;;;;;;3.42;1.63;;;14.30;99.90;;;;;;5050449;28;20053;-73
2021/10/03 05:41:33;;;;;;;4.82;1.85;;;14.30;99.90;;;;;;5047186;28;20053;-74
2021/10/03 05:43:59;;;;;;;3.80;1.75;;;14.30;99.90;;;;;;5023292;28;20052;-73
2021/10/03 05:46:25;;;;;;;5.45;2.30;;;14.30;99.90;;;;;;5032581;28;20434;-73
2021/10/03 05:48:51;;;;;;;6.95;3.70;;;14.30;99.90;;;;;;5040505;28;20079;-73
2021/10/03 05:51:17;;;;;;;5.15;2.33;;;14.30;99.90;;;;;;5050834;28;20068;-73
2021/10/03 05:53:43;;;;;;;2.65;1.13;;;14.40;99.90;;;;;;5067937;28;20048;-73
2021/10/03 05:56:09;;;;;;;4.63;0.95;;;14.40;99.90;;;;;;5052743;28;20045;-73
2021/10/03 05:58:34;;;;;;;2.20;0.93;;;14.30;99.90;;;;;;5035459;28;20052;-74
2021/10/03 06:01:01;;;;;;;2.35;0.93;;;14.30;99.90;;;;;;5013073;28;20061;-74
2021/10/03 06:03:27;;;;;;;5.50;1.10;;;14.20;99.90;;;;;;5030313;28;20049;-73
2021/10/03 06:05:52;;;;;;;3.30;0.90;;;14.20;99.90;;;;;;5051998;28;20041;-73
2021/10/03 06:08:18;;;;;;;2.97;1.15;;;14.10;99.90;;;;;;5049504;28;20164;-74
2021/10/03 06:10:45;;;;;;;4.43;1.00;;;14.10;99.90;;;;;;5027996;28;20088;-73
2021/10/03 06:13:11;;;;;;;5.93;1.85;;;14.10;99.90;;;;;;5044946;28;20504;-74
2021/10/03 06:15:39;;;;;;;5.35;2.20;;;14.10;99.90;;;;;;5014259;28;20534;-74
2021/10/03 06:18:06;;;;;;;5.80;2.83;;;14.00;99.90;;;;;;5047467;28;20118;-74
2021/10/03 06:20:35;;;;;;;4.93;2.25;;;14.00;99.90;;;;;;5031993;28;20132;-74
2021/10/03 06:23:00;;;;;;;3.45;1.50;;;14.00;99.90;;;;;;5031493;28;20071;-73
2021/10/03 06:25:26;;;;;;;4.57;1.55;;;14.00;99.90;;;;;;5049185;28;20499;-73
2021/10/03 06:27:52;;;;;;;3.17;1.70;;;14.00;99.90;;;;;;5032934;28;20558;-73
2021/10/03 06:30:18;;;;;;;6.00;1.40;;;14.00;99.90;;;;;;5032996;28;20076;-73
2021/10/03 06:32:44;;;;;;;5.25;1.80;;;14.00;99.90;;;;;;5033326;28;20057;-73
2021/10/03 06:35:09;;;;;;;2.00;1.25;;;14.00;99.90;;;;;;5015887;28;20048;-74
2021/10/03 06:37:36;;;;;;;6.25;1.40;;;14.00;99.90;;;;;;5049683;28;20514;-74
2021/10/03 06:40:06;;;;;;;3.13;1.70;;;14.00;99.90;;;;;;5049454;28;20091;-74
2021/10/03 06:42:35;;;;;;;4.10;2.38;;;14.00;99.90;;;;;;5035994;28;20507;-74
2021/10/03 06:45:01;;;;;;;2.15;1.38;;;14.00;99.90;;;;;;5065387;28;20045;-74
2021/10/03 06:47:26;;;;;;;3.90;1.88;;;14.00;99.90;;;;;;5030555;28;20033;-74
2021/10/03 06:49:52;;;;;;;4.80;1.50;;;14.00;99.90;;;;;;5049149;28;20045;-74
2021/10/03 06:52:18;;;;;;;3.50;1.10;;;14.00;99.90;;;;;;5029471;28;20037;-74
2021/10/03 06:54:44;;;;;;;3.83;1.45;;;14.00;99.90;;;;;;5030434;28;20495;-74
2021/10/03 06:57:11;;;;;;;2.80;1.50;;;13.90;99.90;;;;;;5044120;28;20086;-75
2021/10/03 06:59:36;;;;;;;3.40;1.40;;;14.00;99.90;;;;;;5047973;28;20080;-74
2021/10/03 07:02:19;;;;;;;2.22;1.33;;;14.00;99.90;;;;;;5045146;28;20131;-73
2021/10/03 07:04:45;;;;;;;3.72;1.27;;;14.00;99.90;;;;;;5041608;28;20055;-73
2021/10/03 07:07:11;;;;;;;2.30;1.00;;;14.00;99.90;;;;;;5030994;28;20049;-73
2021/10/03 07:09:36;;;;;;;2.78;1.10;;;14.00;99.90;;;;;;5074358;28;20045;-73
2021/10/03 07:12:02;;;;;;;2.25;0.73;;;14.00;99.90;;;;;;5027365;28;20561;-74
2021/10/03 07:14:28;;;;;;;1.83;1.00;;;14.00;99.90;;;;;;5026296;28;20049;-73
2021/10/03 07:16:54;;;;;;;1.00;0.75;;;14.00;99.90;;;;;;5008931;28;20042;-74
2021/10/03 07:19:23;;;;;;;1.60;0.70;;;14.00;99.90;;;;;;5034856;28;20356;-74
2021/10/03 07:21:48;;;;;;;1.85;0.60;;;14.00;99.90;;;;;;5027263;28;20037;-74
2021/10/03 07:24:17;;;;;;;1.70;0.80;;;14.00;99.90;;;;;;5027919;28;20086;-74
2021/10/03 07:26:46;;;;;;;3.38;1.13;;;14.00;99.90;;;;;;5020016;28;20095;-74
2021/10/03 07:29:11;;;;;;;1.20;0.75;;;14.00;99.90;;;;;;5039726;28;20045;-74
2021/10/03 07:31:37;;;;;;;2.47;0.82;;;14.00;99.90;;;;;;5046547;28;20063;-74
2021/10/03 07:34:03;;;;;;;3.03;1.33;;;14.00;99.90;;;;;;5030878;28;20041;-73
2021/10/03 07:36:29;;;;;;;4.63;1.63;;;14.00;99.90;;;;;;5046031;28;20526;-73
2021/10/03 07:38:55;;;;;;;1.52;0.98;;;14.00;99.90;;;;;;5042189;28;20044;-74
2021/10/03 07:41:21;;;;;;;1.92;0.82;;;14.00;99.90;;;;;;5045448;28;20045;-74
2021/10/03 07:43:49;;;;;;;20.75;15.07;;;14.00;99.90;;;;;;5047647;28;20057;-74
2021/10/03 07:46:16;;;;;;;5.00;2.05;;;14.00;99.90;;;;;;5046065;28;20523;-74
2021/10/03 07:48:42;;;;;;;2.60;1.67;;;14.00;99.90;;;;;;5048017;28;20056;-74
2021/10/03 07:51:10;;;;;;;5.20;2.58;;;14.00;99.90;;;;;;5012413;28;20406;-74
2021/10/03 07:53:36;;;;;;;3.00;1.98;;;14.00;99.90;;;;;;5012756;28;20049;-74
2021/10/03 07:56:03;;;;;;;3.47;2.25;;;14.00;99.90;;;;;;5030785;28;20124;-74
2021/10/03 07:58:29;;;;;;;6.82;4.30;;;14.00;99.90;;;;;;5046836;28;20449;-74
2021/10/03 08:00:54;;;;;;;4.18;2.28;;;14.00;99.90;;;;;;5030070;28;20049;-74
2021/10/03 08:03:21;;;;;;;3.00;2.08;;;14.00;99.90;;;;;;5046656;28;20064;-74
2021/10/03 08:05:47;;;;;;;5.22;3.67;;;14.00;99.90;;;;;;5029947;28;20055;-74
2021/10/03 08:08:13;;;;;;;4.20;2.53;;;14.00;99.90;;;;;;5020044;28;20091;-74
2021/10/03 08:10:40;;;;;;;5.82;2.25;;;14.00;99.90;;;;;;5027444;28;20499;-74
2021/10/03 08:13:11;;;;;;;2.70;1.27;;;14.00;99.90;;;;;;5063580;28;20060;-74
2021/10/03 08:15:39;;;;;;;2.15;1.48;;;14.00;99.90;;;;;;5063852;28;20174;-74
2021/10/03 08:18:05;;;;;;;2.13;1.45;;;14.00;99.90;;;;;;5047721;28;20063;-74
2021/10/03 08:20:32;;;;;;;2.17;1.20;;;14.00;99.90;;;;;;5042500;28;20045;-74
2021/10/03 08:22:58;;;;;;;2.70;1.00;;;14.00;99.90;;;;;;5060315;28;20088;-74
2021/10/03 08:25:24;;;;;;;3.75;1.30;;;14.00;99.90;;;;;;5046378;28;20319;-74
2021/10/03 08:27:50;;;;;;;2.55;0.80;;;14.00;99.90;;;;;;5038868;28;20055;-74
2021/10/03 08:30:16;;;;;;;2.67;1.00;;;14.00;99.90;;;;;;5030524;28;20094;-74
2021/10/03 08:32:43;;;;;;;1.20;0.80;;;14.00;99.90;;;;;;5024655;28;20048;-74
2021/10/03 08:35:12;;;;;;;1.75;0.82;;;14.00;99.90;;;;;;5030384;28;20049;-74
2021/10/03 08:37:39;;;;;;;1.58;1.23;;;14.00;99.90;;;;;;5043637;28;20041;-73
2021/10/03 08:40:07;;;;;;;1.80;0.80;;;14.10;99.90;;;;;;5046632;28;20053;-74
2021/10/03 08:42:33;;;;;;;1.38;0.70;;;14.10;99.90;;;;;;5028507;28;20124;-74
2021/10/03 08:44:59;;;;;;;2.75;1.02;;;14.10;99.90;;;;;;5025418;28;20048;-74
2021/10/03 08:47:25;;;;;;;2.72;0.93;;;14.10;99.90;;;;;;5041202;28;20041;-74
2021/10/03 08:49:55;;;;;;;1.65;0.60;;;14.10;99.90;;;;;;5018880;28;20041;-74
2021/10/03 08:52:25;;;;;;;2.73;0.50;;;14.10;99.90;;;;;;5027387;28;20091;-73
2021/10/03 08:54:51;;;;;;;2.08;0.50;;;14.00;99.90;;;;;;5046949;28;20155;-73
2021/10/03 08:57:18;;;;;;;3.40;0.70;;;13.90;99.90;;;;;;5035206;28;20099;-74
2021/10/03 09:00:10;;;;;;;2.03;0.60;;;13.70;99.90;;;;;;5013244;28;20530;-74
2021/10/03 09:02:57;;;;;;;3.20;1.10;;;13.60;99.90;;;;;;5062783;28;20565;-74
2021/10/03 09:05:25;;;;;;;2.65;1.23;;;13.50;99.90;;;;;;5044468;28;20041;-73
2021/10/03 09:08:29;;;;;;;4.35;0.98;;;13.40;99.90;;;;;;5029014;28;20124;-74
2021/10/03 09:11:03;;;;;;;2.60;0.80;;;13.40;99.90;;;;;;5025862;28;20404;-73
2021/10/03 09:13:32;;;;;;;4.30;1.30;;;13.30;99.90;;;;;;5030628;28;20099;-74
2021/10/03 09:16:07;;;;;;;2.78;0.80;;;13.20;99.90;;;;;;5047113;28;20068;-74
2021/10/03 09:18:43;;;;;;;3.13;1.60;;;13.30;99.90;;;;;;5047002;28;20124;-74
2021/10/03 09:21:11;;;;;;;3.60;1.75;;;13.30;99.90;;;;;;5025329;28;20060;-74
2021/10/03 09:23:37;;;;;;;5.18;1.92;;;13.30;99.90;;;;;;5063779;28;20092;-74
2021/10/03 09:26:11;;;;;;;16.48;8.65;;;13.20;99.90;;;;;;5026168;28;20087;-74
2021/10/03 09:28:37;;;;;;;8.63;4.55;;;13.20;99.90;;;;;;5063394;28;20045;-74
2021/10/03 09:31:17;;;;;;;4.40;1.77;;;13.20;99.90;;;;;;5047257;28;20114;-74
2021/10/03 09:33:58;;;;;;;5.43;1.50;;;13.20;99.90;;;;;;5017506;28;20084;-74
2021/10/03 09:36:26;;;;;;;5.43;1.23;;;13.20;99.90;;;;;;5036485;28;20139;-74
2021/10/03 09:39:04;;;;;;;3.65;1.23;;;13.20;99.90;;;;;;5045955;28;20060;-74
2021/10/03 09:41:43;;;;;;;5.53;1.67;;;13.20;99.90;;;;;;5064108;28;20484;-74
2021/10/03 09:44:09;;;;;;;6.18;1.55;;;13.10;99.90;;;;;;5043765;28;20049;-74
2021/10/03 09:46:42;;;;;;;5.95;2.72;;;13.20;99.90;;;;;;5045909;28;20053;-74
2021/10/03 09:49:12;;;;;;;4.28;2.88;;;13.10;99.90;;;;;;5046008;28;20060;-74
2021/10/03 09:51:39;;;;;;;;;;;13.20;99.90;;;;;;5046746;28;20139;-74
2021/10/03 09:54:06;;;;;;;7.82;4.30;;;13.20;99.90;;;;;;5065419;28;20069;-74
2021/10/03 09:56:36;;;;;;;4.20;2.55;;;13.20;99.90;;;;;;5049425;28;20052;-74
2021/10/03 09:59:03;;;;;;;4.88;1.90;;;13.20;99.90;;;;;;5028162;28;20487;-74
2021/10/03 10:01:34;;;;;;;2.70;1.33;;;13.20;99.90;;;;;;5020072;28;20053;-74
2021/10/03 10:04:04;;;;;;;3.63;1.20;;;13.20;99.90;;;;;;5045010;28;20045;-74
2021/10/03 10:06:30;;;;;;;3.75;1.63;;;13.20;99.90;;;;;;5048601;28;20072;-74
2021/10/03 10:08:57;;;;;;;2.15;1.30;;;13.20;99.90;;;;;;5049379;28;20503;-74
2021/10/03 10:11:32;;;;;;;2.30;1.17;;;13.20;99.90;;;;;;5046286;28;20052;-74
2021/10/03 10:14:00;;;;;;;4.10;1.58;;;13.20;99.90;;;;;;5076343;28;20049;-75
2021/10/03 10:16:41;;;;;;;2.17;1.30;;;13.20;99.90;;;;;;5044191;28;20048;-72
2021/10/03 10:19:44;;;;;;;3.53;1.85;;;13.30;99.90;;;;;;5069410;28;20715;-72
2021/10/03 10:22:16;;;;;;;3.92;1.83;;;13.30;99.90;;;;;;5049292;28;20043;-73
2021/10/03 10:24:45;;;;;;;6.25;2.25;;;13.20;99.90;;;;;;5048158;28;20064;-73
2021/10/03 10:27:29;;;;;;;4.28;2.17;;;13.20;99.90;;;;;;5051417;28;20053;-72
2021/10/03 10:30:04;;;;;;;3.85;1.95;;;13.20;99.90;;;;;;5047212;28;20082;-73
2021/10/03 10:32:54;;;;;;;3.60;2.33;;;13.20;99.90;;;;;;5048063;28;20503;-73
2021/10/03 10:35:25;;;;;;;7.07;2.10;;;13.20;99.90;;;;;;5037677;28;20136;-73
2021/10/03 10:37:51;;;;;;;3.97;1.73;;;13.30;99.90;;;;;;5049862;28;20379;-73
2021/10/03 10:40:23;;;;;;;2.40;1.50;;;13.30;99.90;;;;;;5048412;28;20055;-73
2021/10/03 10:42:53;;;;;;;4.60;1.70;;;13.30;99.90;;;;;;5049092;28;20079;-73
2021/10/03 10:45:35;;;;;;;3.95;1.70;;;13.30;99.90;;;;;;5025851;28;20045;-73
2021/10/03 10:48:10;;;;;;;6.10;1.98;;;13.30;99.90;;;;;;5043694;28;20048;-73
2021/10/03 10:50:44;;;;;;;1.98;1.40;;;13.30;99.90;;;;;;5028673;28;20410;-73
2021/10/03 10:53:24;;;;;;;1.50;1.00;;;13.30;99.90;;;;;;5048769;28;20110;-72
2021/10/03 10:56:02;;;;;;;3.60;1.60;;;13.30;99.90;;;;;;5048497;28;20083;-73
2021/10/03 10:58:34;;;;;;;2.28;1.10;;;13.30;99.90;;;;;;5042226;28;20045;-73
2021/10/03 11:01:03;;;;;;;1.75;1.15;;;13.30;99.90;;;;;;5012670;28;20049;-72
2021/10/03 11:03:44;;;;;;;2.10;1.20;;;13.40;99.90;;;;;;5046513;28;20495;-73
2021/10/03 11:06:34;;;;;;;2.13;1.00;;;13.40;99.90;;;;;;5016439;28;20041;-73
2021/10/03 11:09:06;;;;;;;2.45;0.95;;;13.40;99.90;;;;;;5042420;28;20048;-73
2021/10/03 11:11:35;;;;;;;2.97;1.90;;;13.40;99.90;;;;;;5049125;28;20598;-73
2021/10/03 11:14:13;;;;;;;3.47;2.17;;;13.40;99.90;;;;;;5051654;28;20056;-73
2021/10/03 11:16:43;;;;;;;4.80;2.15;;;13.40;99.90;;;;;;5043871;28;20068;-72
2021/10/03 11:19:23;;;;;;;4.35;2.25;;;13.50;99.90;;;;;;5042269;28;20534;-73
2021/10/03 11:21:55;;;;;;;7.43;2.70;;;13.50;99.90;;;;;;5054962;28;20101;-72
2021/10/03 11:24:22;;;;;;;6.63;3.30;;;13.50;99.90;;;;;;5045554;28;20099;-72
2021/10/03 11:27:00;;;;;;;4.95;2.72;;;13.50;99.90;;;;;;5044548;28;20449;-73
2021/10/03 11:29:34;;;;;;;5.75;1.98;;;13.50;99.90;;;;;;5057602;28;20045;-73
2021/10/03 11:32:05;;;;;;;3.58;1.75;;;13.50;99.90;;;;;;5049237;28;20135;-73
2021/10/03 11:34:31;;;;;;;3.20;1.45;;;13.50;99.90;;;;;;5048371;28;20103;-73
2021/10/03 11:37:09;;;;;;;2.88;1.70;;;13.50;99.90;;;;;;5033301;28;20045;-73
2021/10/03 11:39:53;;;;;;;3.03;1.40;;;13.50;99.90;;;;;;5048895;28;20052;-73
2021/10/03 11:42:29;;;;;;;2.97;1.10;;;13.60;99.90;;;;;;5050942;28;20048;-72
2021/10/03 11:45:22;;;;;;;2.97;1.00;;;13.60;99.90;;;;;;5055347;28;20702;-72
2021/10/03 11:48:00;;;;;;;1.70;0.60;;;13.70;99.90;;;;;;5057560;28;20414;-72
2021/10/03 11:50:29;;;;;;;1.45;0.98;;;13.70;99.90;;;;;;5050369;28;20040;-72
2021/10/03 11:53:15;;;;;;;3.58;1.85;;;13.60;99.90;;;;;;5049458;28;20225;-72
2021/10/03 11:55:42;;;;;;;1.90;1.15;;;13.70;99.90;;;;;;5050654;28;20051;-72
2021/10/03 11:58:14;;;;;;;2.90;1.20;;;13.60;99.90;;;;;;5049904;28;20406;-72
2021/10/03 12:00:50;;;;;;;2.17;1.00;;;13.60;99.90;;;;;;5050140;28;20584;-72
2021/10/03 12:03:16;;;;;;;3.40;1.30;;;13.70;99.90;;;;;;5032418;28;20040;-72
2021/10/03 12:05:42;;;;;;;2.10;1.15;;;13.70;99.90;;;;;;5048938;28;20490;-72
2021/10/03 12:08:13;;;;;;;3.20;1.00;;;13.70;99.90;;;;;;5048991;28;20059;-72
2021/10/03 12:10:46;;;;;;;2.60;0.77;;;13.70;99.90;;;;;;5027503;28;20036;-72
2021/10/03 12:13:29;;;;;;;1.80;0.70;;;13.60;99.90;;;;;;5066143;28;20517;-72
2021/10/03 12:16:22;;;;;;;3.10;0.80;;;13.50;99.90;;;;;;5048216;28;20041;-72
2021/10/03 12:18:49;;;;;;;2.53;0.88;;;13.50;99.90;;;;;;5046123;28;20800;-72
2021/10/03 12:21:32;;;;;;;2.47;0.65;;;13.50;99.90;;;;;;5045919;28;20045;-72
2021/10/03 12:24:04;;;;;;;1.90;0.60;;;13.50;99.90;;;;;;5032448;28;20072;-72
2021/10/03 12:26:46;;;;;;;3.10;0.60;;;13.50;99.90;;;;;;5049909;28;20135;-72
2021/10/03 12:29:21;;;;;;;0.98;0.60;;;13.50;99.90;;;;;;5067129;28;20487;-72
2021/10/03 12:31:58;;;;;;;2.00;0.80;;;13.50;99.90;;;;;;5049080;28;20041;-72
2021/10/03 12:34:25;;;;;;;2.75;0.88;;;13.60;99.90;;;;;;5048901;28;20037;-72
2021/10/03 12:36:53;;;;;;;1.52;0.65;;;13.60;99.90;;;;;;5028857;28;20075;-72
2021/10/03 12:39:28;;;;;;;2.35;1.00;;;13.70;99.90;;;;;;5049773;28;20165;-72
2021/10/03 12:41:56;;;;;;;12.07;10.88;;;13.70;99.90;;;;;;5031089;28;20106;-72
2021/10/03 12:44:23;;;;;;;4.85;3.90;;;13.90;99.90;;;;;;5047410;28;20494;-72
2021/10/03 12:46:49;;;;;;;4.63;3.53;;;13.90;99.90;;;;;;5029649;28;20055;-72
2021/10/03 12:49:15;;;;;;;2.78;1.23;;;13.90;99.90;;;;;;5049117;28;20049;-72
2021/10/03 12:51:41;;;;;;;2.03;1.73;;;14.00;99.90;;;;;;5049638;28;20072;-72
2021/10/03 12:54:06;;;;;;;3.72;1.92;;;14.00;99.90;;;;;;5032852;28;20075;-72
2021/10/03 12:56:32;;;;;;;4.40;2.20;;;14.00;99.90;;;;;;5047424;28;20040;-72